Terminal Aerodrome Forecast
Issued by NWS

Home | Current Version | Previous Version | Text Only | Print | Product List | Glossary On
Versions: 1 2 3 4 5 6 7 8 9 10 11 12 13 14 15 16 17 18 19
000
FTUS42 KFFC 272331
TAFFTY
TAF
KFTY 272331Z 2800/2824 35006KT P6SM FEW250
     FM280500 03005KT P6SM SCT025
     FM280900 05006KT P6SM BKN015
     FM281500 07011G18KT P6SM BKN025
     FM281700 08010G16KT P6SM SCT030 BKN080=

USA.gov is the U.S. government's official web portal to all federal, state and local government web resources and services.